sensor_id;sensor_type;location;lat;lon;timestamp;P1;durP1;ratioP1;P2;durP2;ratioP2
5010;SDS011;2524;54.364;10.072;2022-12-08T00:01:46;1.80;;;1.70;;
5010;SDS011;2524;54.364;10.072;2022-12-08T00:04:12;4.00;;;1.70;;
5010;SDS011;2524;54.364;10.072;2022-12-08T00:06:41;5.13;;;2.57;;
5010;SDS011;2524;54.364;10.072;2022-12-08T00:09:39;2.10;;;1.37;;
5010;SDS011;2524;54.364;10.072;2022-12-08T00:12:13;1.60;;;1.40;;
5010;SDS011;2524;54.364;10.072;2022-12-08T00:14:43;1.17;;;1.17;;
5010;SDS011;2524;54.364;10.072;2022-12-08T00:17:11;1.00;;;1.00;;
5010;SDS011;2524;54.364;10.072;2022-12-08T00:19:38;1.70;;;1.40;;
5010;SDS011;2524;54.364;10.072;2022-12-08T00:22:05;1.30;;;1.30;;
5010;SDS011;2524;54.364;10.072;2022-12-08T00:24:32;1.10;;;1.10;;
5010;SDS011;2524;54.364;10.072;2022-12-08T00:27:02;1.37;;;1.30;;
5010;SDS011;2524;54.364;10.072;2022-12-08T00:29:27;0.90;;;0.90;;
5010;SDS011;2524;54.364;10.072;2022-12-08T00:31:53;2.03;;;1.30;;
5010;SDS011;2524;54.364;10.072;2022-12-08T00:34:19;1.33;;;1.33;;
5010;SDS011;2524;54.364;10.072;2022-12-08T00:36:44;1.57;;;1.27;;
5010;SDS011;2524;54.364;10.072;2022-12-08T00:39:11;1.50;;;1.40;;
5010;SDS011;2524;54.364;10.072;2022-12-08T00:41:38;1.20;;;1.20;;
5010;SDS011;2524;54.364;10.072;2022-12-08T00:44:22;1.43;;;1.27;;
5010;SDS011;2524;54.364;10.072;2022-12-08T00:46:47;1.60;;;1.47;;
5010;SDS011;2524;54.364;10.072;2022-12-08T00:49:13;2.40;;;1.30;;
5010;SDS011;2524;54.364;10.072;2022-12-08T00:51:40;1.40;;;1.30;;
5010;SDS011;2524;54.364;10.072;2022-12-08T00:54:06;1.20;;;0.93;;
5010;SDS011;2524;54.364;10.072;2022-12-08T00:56:32;1.20;;;1.10;;
5010;SDS011;2524;54.364;10.072;2022-12-08T00:58:59;1.23;;;1.10;;
5010;SDS011;2524;54.364;10.072;2022-12-08T01:01:25;1.00;;;1.00;;
5010;SDS011;2524;54.364;10.072;2022-12-08T01:03:51;1.20;;;1.20;;
5010;SDS011;2524;54.364;10.072;2022-12-08T01:06:17;1.10;;;1.10;;
5010;SDS011;2524;54.364;10.072;2022-12-08T01:08:43;0.83;;;0.83;;
5010;SDS011;2524;54.364;10.072;2022-12-08T01:11:10;1.10;;;1.00;;
5010;SDS011;2524;54.364;10.072;2022-12-08T01:13:40;0.83;;;0.83;;
5010;SDS011;2524;54.364;10.072;2022-12-08T01:16:07;0.80;;;0.80;;
5010;SDS011;2524;54.364;10.072;2022-12-08T01:18:33;0.80;;;0.80;;
5010;SDS011;2524;54.364;10.072;2022-12-08T01:21:05;0.90;;;0.90;;
5010;SDS011;2524;54.364;10.072;2022-12-08T01:23:32;1.10;;;1.10;;
5010;SDS011;2524;54.364;10.072;2022-12-08T01:26:02;1.00;;;1.00;;
5010;SDS011;2524;54.364;10.072;2022-12-08T01:28:29;0.87;;;0.87;;
5010;SDS011;2524;54.364;10.072;2022-12-08T01:30:55;0.80;;;0.80;;
5010;SDS011;2524;54.364;10.072;2022-12-08T01:33:21;0.70;;;0.70;;
5010;SDS011;2524;54.364;10.072;2022-12-08T01:35:47;0.70;;;0.70;;
5010;SDS011;2524;54.364;10.072;2022-12-08T01:38:12;0.80;;;0.80;;
5010;SDS011;2524;54.364;10.072;2022-12-08T01:40:38;1.00;;;1.00;;
5010;SDS011;2524;54.364;10.072;2022-12-08T01:43:03;0.93;;;0.93;;
5010;SDS011;2524;54.364;10.072;2022-12-08T01:45:30;0.90;;;0.90;;
5010;SDS011;2524;54.364;10.072;2022-12-08T01:48:05;0.60;;;0.60;;
5010;SDS011;2524;54.364;10.072;2022-12-08T01:50:35;0.77;;;0.77;;
5010;SDS011;2524;54.364;10.072;2022-12-08T01:53:08;0.63;;;0.63;;
5010;SDS011;2524;54.364;10.072;2022-12-08T01:55:49;0.60;;;0.60;;
5010;SDS011;2524;54.364;10.072;2022-12-08T01:58:36;0.60;;;0.60;;
5010;SDS011;2524;54.364;10.072;2022-12-08T02:01:07;0.70;;;0.70;;
5010;SDS011;2524;54.364;10.072;2022-12-08T02:03:35;0.70;;;0.70;;
5010;SDS011;2524;54.364;10.072;2022-12-08T02:06:08;0.60;;;0.53;;
5010;SDS011;2524;54.364;10.072;2022-12-08T02:08:34;0.50;;;0.50;;
5010;SDS011;2524;54.364;10.072;2022-12-08T02:11:04;0.70;;;0.57;;
5010;SDS011;2524;54.364;10.072;2022-12-08T02:13:30;0.60;;;0.60;;
5010;SDS011;2524;54.364;10.072;2022-12-08T02:24:10;0.70;;;0.70;;
5010;SDS011;2524;54.364;10.072;2022-12-08T02:32:53;1.33;;;0.70;;
5010;SDS011;2524;54.364;10.072;2022-12-08T02:38:06;1.03;;;1.03;;
5010;SDS011;2524;54.364;10.072;2022-12-08T02:40:43;0.90;;;0.90;;
5010;SDS011;2524;54.364;10.072;2022-12-08T02:43:27;0.70;;;0.70;;
5010;SDS011;2524;54.364;10.072;2022-12-08T02:45:59;1.20;;;1.20;;
5010;SDS011;2524;54.364;10.072;2022-12-08T02:48:29;1.03;;;1.03;;
5010;SDS011;2524;54.364;10.072;2022-12-08T02:50:56;0.90;;;0.90;;
5010;SDS011;2524;54.364;10.072;2022-12-08T02:53:22;0.83;;;0.83;;
5010;SDS011;2524;54.364;10.072;2022-12-08T02:58:51;0.60;;;0.60;;
5010;SDS011;2524;54.364;10.072;2022-12-08T03:04:40;0.70;;;0.70;;
5010;SDS011;2524;54.364;10.072;2022-12-08T03:07:16;1.37;;;0.60;;
5010;SDS011;2524;54.364;10.072;2022-12-08T03:09:50;0.50;;;0.50;;
5010;SDS011;2524;54.364;10.072;2022-12-08T03:12:41;0.70;;;0.70;;
5010;SDS011;2524;54.364;10.072;2022-12-08T03:15:13;0.63;;;0.63;;
5010;SDS011;2524;54.364;10.072;2022-12-08T03:17:43;0.77;;;0.77;;
5010;SDS011;2524;54.364;10.072;2022-12-08T03:20:14;0.87;;;0.70;;
5010;SDS011;2524;54.364;10.072;2022-12-08T03:22:44;0.70;;;0.70;;
5010;SDS011;2524;54.364;10.072;2022-12-08T03:25:12;0.93;;;0.93;;
5010;SDS011;2524;54.364;10.072;2022-12-08T03:27:40;1.10;;;1.10;;
5010;SDS011;2524;54.364;10.072;2022-12-08T03:30:06;0.80;;;0.80;;
5010;SDS011;2524;54.364;10.072;2022-12-08T03:35:12;1.40;;;0.80;;
5010;SDS011;2524;54.364;10.072;2022-12-08T03:37:40;0.90;;;0.87;;
5010;SDS011;2524;54.364;10.072;2022-12-08T03:40:08;0.60;;;0.60;;
5010;SDS011;2524;54.364;10.072;2022-12-08T03:42:35;0.57;;;0.57;;
5010;SDS011;2524;54.364;10.072;2022-12-08T03:45:00;0.60;;;0.60;;
5010;SDS011;2524;54.364;10.072;2022-12-08T03:47:26;0.67;;;0.67;;
5010;SDS011;2524;54.364;10.072;2022-12-08T03:49:52;0.70;;;0.70;;
5010;SDS011;2524;54.364;10.072;2022-12-08T03:52:17;1.67;;;0.80;;
5010;SDS011;2524;54.364;10.072;2022-12-08T03:54:43;0.50;;;0.50;;
5010;SDS011;2524;54.364;10.072;2022-12-08T03:57:08;0.60;;;0.60;;
5010;SDS011;2524;54.364;10.072;2022-12-08T03:59:34;0.63;;;0.63;;
5010;SDS011;2524;54.364;10.072;2022-12-08T04:01:59;0.77;;;0.77;;
5010;SDS011;2524;54.364;10.072;2022-12-08T04:04:25;0.77;;;0.70;;
5010;SDS011;2524;54.364;10.072;2022-12-08T04:06:50;0.50;;;0.50;;
5010;SDS011;2524;54.364;10.072;2022-12-08T04:09:16;0.50;;;0.50;;
5010;SDS011;2524;54.364;10.072;2022-12-08T04:11:42;0.67;;;0.63;;
5010;SDS011;2524;54.364;10.072;2022-12-08T04:14:07;0.60;;;0.60;;
5010;SDS011;2524;54.364;10.072;2022-12-08T04:16:33;0.60;;;0.60;;
5010;SDS011;2524;54.364;10.072;2022-12-08T04:18:59;0.70;;;0.70;;
5010;SDS011;2524;54.364;10.072;2022-12-08T04:21:24;0.73;;;0.70;;
5010;SDS011;2524;54.364;10.072;2022-12-08T04:23:50;1.60;;;0.80;;
5010;SDS011;2524;54.364;10.072;2022-12-08T04:26:16;0.90;;;0.90;;
5010;SDS011;2524;54.364;10.072;2022-12-08T04:28:42;1.00;;;1.00;;
5010;SDS011;2524;54.364;10.072;2022-12-08T04:31:08;0.60;;;0.60;;
5010;SDS011;2524;54.364;10.072;2022-12-08T04:33:34;0.77;;;0.77;;
5010;SDS011;2524;54.364;10.072;2022-12-08T04:36:00;0.57;;;0.57;;
5010;SDS011;2524;54.364;10.072;2022-12-08T04:38:27;0.70;;;0.70;;
5010;SDS011;2524;54.364;10.072;2022-12-08T04:40:52;0.60;;;0.60;;
5010;SDS011;2524;54.364;10.072;2022-12-08T04:43:18;0.70;;;0.70;;
5010;SDS011;2524;54.364;10.072;2022-12-08T04:45:44;0.80;;;0.80;;
5010;SDS011;2524;54.364;10.072;2022-12-08T04:48:10;0.80;;;0.80;;
5010;SDS011;2524;54.364;10.072;2022-12-08T04:50:39;0.70;;;0.70;;
5010;SDS011;2524;54.364;10.072;2022-12-08T04:53:06;1.80;;;0.97;;
5010;SDS011;2524;54.364;10.072;2022-12-08T04:55:32;0.97;;;0.97;;
5010;SDS011;2524;54.364;10.072;2022-12-08T04:57:58;0.70;;;0.70;;
5010;SDS011;2524;54.364;10.072;2022-12-08T05:00:23;0.70;;;0.70;;
5010;SDS011;2524;54.364;10.072;2022-12-08T05:02:49;1.00;;;1.00;;
5010;SDS011;2524;54.364;10.072;2022-12-08T05:05:14;0.80;;;0.80;;
5010;SDS011;2524;54.364;10.072;2022-12-08T05:07:40;0.77;;;0.77;;
5010;SDS011;2524;54.364;10.072;2022-12-08T05:10:06;2.10;;;0.97;;
5010;SDS011;2524;54.364;10.072;2022-12-08T05:12:32;1.20;;;1.10;;
5010;SDS011;2524;54.364;10.072;2022-12-08T05:14:58;1.30;;;1.30;;
5010;SDS011;2524;54.364;10.072;2022-12-08T05:17:23;1.30;;;1.30;;
5010;SDS011;2524;54.364;10.072;2022-12-08T05:19:52;1.30;;;1.30;;
5010;SDS011;2524;54.364;10.072;2022-12-08T05:22:18;1.60;;;1.50;;
5010;SDS011;2524;54.364;10.072;2022-12-08T05:24:43;1.50;;;1.50;;
5010;SDS011;2524;54.364;10.072;2022-12-08T05:27:09;1.30;;;1.30;;
5010;SDS011;2524;54.364;10.072;2022-12-08T05:29:35;1.30;;;1.30;;
5010;SDS011;2524;54.364;10.072;2022-12-08T05:32:01;1.30;;;1.30;;
5010;SDS011;2524;54.364;10.072;2022-12-08T05:34:26;0.90;;;0.90;;
5010;SDS011;2524;54.364;10.072;2022-12-08T05:36:52;1.00;;;1.00;;
5010;SDS011;2524;54.364;10.072;2022-12-08T05:39:17;1.10;;;1.10;;
5010;SDS011;2524;54.364;10.072;2022-12-08T05:41:43;1.10;;;1.00;;
5010;SDS011;2524;54.364;10.072;2022-12-08T05:44:08;1.00;;;1.00;;
5010;SDS011;2524;54.364;10.072;2022-12-08T05:46:34;0.90;;;0.90;;
5010;SDS011;2524;54.364;10.072;2022-12-08T05:49:00;1.10;;;1.10;;
5010;SDS011;2524;54.364;10.072;2022-12-08T05:51:26;0.90;;;0.90;;
5010;SDS011;2524;54.364;10.072;2022-12-08T05:53:52;1.00;;;1.00;;
5010;SDS011;2524;54.364;10.072;2022-12-08T05:56:19;1.30;;;1.30;;
5010;SDS011;2524;54.364;10.072;2022-12-08T05:58:45;1.10;;;1.10;;
5010;SDS011;2524;54.364;10.072;2022-12-08T06:01:22;1.20;;;1.20;;
5010;SDS011;2524;54.364;10.072;2022-12-08T06:03:49;1.50;;;1.50;;
5010;SDS011;2524;54.364;10.072;2022-12-08T06:06:15;1.27;;;1.27;;
5010;SDS011;2524;54.364;10.072;2022-12-08T06:08:41;1.00;;;1.00;;
5010;SDS011;2524;54.364;10.072;2022-12-08T06:11:07;1.00;;;1.00;;
5010;SDS011;2524;54.364;10.072;2022-12-08T06:13:33;0.80;;;0.80;;
5010;SDS011;2524;54.364;10.072;2022-12-08T06:16:02;1.70;;;1.70;;
5010;SDS011;2524;54.364;10.072;2022-12-08T06:18:29;1.03;;;1.03;;
5010;SDS011;2524;54.364;10.072;2022-12-08T06:21:05;1.03;;;1.03;;
5010;SDS011;2524;54.364;10.072;2022-12-08T06:23:32;1.50;;;1.50;;
5010;SDS011;2524;54.364;10.072;2022-12-08T06:26:05;1.50;;;1.50;;
5010;SDS011;2524;54.364;10.072;2022-12-08T06:28:33;1.33;;;1.33;;
5010;SDS011;2524;54.364;10.072;2022-12-08T06:30:59;1.20;;;1.20;;
5010;SDS011;2524;54.364;10.072;2022-12-08T06:33:30;1.53;;;1.53;;
5010;SDS011;2524;54.364;10.072;2022-12-08T06:35:57;1.27;;;1.27;;
5010;SDS011;2524;54.364;10.072;2022-12-08T06:38:22;1.33;;;1.33;;
5010;SDS011;2524;54.364;10.072;2022-12-08T06:40:52;1.40;;;1.40;;
5010;SDS011;2524;54.364;10.072;2022-12-08T06:43:19;1.50;;;1.50;;
5010;SDS011;2524;54.364;10.072;2022-12-08T06:45:45;1.67;;;1.67;;
5010;SDS011;2524;54.364;10.072;2022-12-08T06:48:11;1.13;;;1.13;;
5010;SDS011;2524;54.364;10.072;2022-12-08T06:50:36;1.47;;;1.47;;
5010;SDS011;2524;54.364;10.072;2022-12-08T06:53:02;1.40;;;1.40;;
5010;SDS011;2524;54.364;10.072;2022-12-08T06:55:28;1.80;;;1.80;;
5010;SDS011;2524;54.364;10.072;2022-12-08T06:57:54;1.83;;;1.83;;
5010;SDS011;2524;54.364;10.072;2022-12-08T07:00:19;2.70;;;2.60;;
5010;SDS011;2524;54.364;10.072;2022-12-08T07:02:45;2.60;;;2.50;;
5010;SDS011;2524;54.364;10.072;2022-12-08T07:05:11;2.00;;;1.90;;
5010;SDS011;2524;54.364;10.072;2022-12-08T07:07:36;2.43;;;2.30;;
5010;SDS011;2524;54.364;10.072;2022-12-08T07:10:02;2.23;;;2.20;;
5010;SDS011;2524;54.364;10.072;2022-12-08T07:12:28;1.47;;;1.47;;
5010;SDS011;2524;54.364;10.072;2022-12-08T07:14:53;1.60;;;1.60;;
5010;SDS011;2524;54.364;10.072;2022-12-08T07:17:19;1.50;;;1.50;;
5010;SDS011;2524;54.364;10.072;2022-12-08T07:19:44;2.10;;;2.10;;
5010;SDS011;2524;54.364;10.072;2022-12-08T07:22:10;1.50;;;1.50;;
5010;SDS011;2524;54.364;10.072;2022-12-08T07:24:36;1.50;;;1.50;;
5010;SDS011;2524;54.364;10.072;2022-12-08T07:27:01;1.63;;;1.63;;
5010;SDS011;2524;54.364;10.072;2022-12-08T07:29:27;1.90;;;1.80;;
5010;SDS011;2524;54.364;10.072;2022-12-08T07:31:52;2.13;;;2.13;;
5010;SDS011;2524;54.364;10.072;2022-12-08T07:34:18;2.80;;;2.70;;
5010;SDS011;2524;54.364;10.072;2022-12-08T07:36:43;1.80;;;1.80;;
5010;SDS011;2524;54.364;10.072;2022-12-08T07:39:09;2.20;;;2.20;;
5010;SDS011;2524;54.364;10.072;2022-12-08T07:41:34;1.50;;;1.50;;
5010;SDS011;2524;54.364;10.072;2022-12-08T07:44:00;2.03;;;2.03;;
5010;SDS011;2524;54.364;10.072;2022-12-08T07:46:26;1.90;;;1.90;;
5010;SDS011;2524;54.364;10.072;2022-12-08T07:48:52;2.50;;;2.43;;
5010;SDS011;2524;54.364;10.072;2022-12-08T07:51:18;3.77;;;3.47;;
5010;SDS011;2524;54.364;10.072;2022-12-08T07:53:45;2.77;;;2.77;;
5010;SDS011;2524;54.364;10.072;2022-12-08T07:56:12;3.17;;;3.07;;
5010;SDS011;2524;54.364;10.072;2022-12-08T07:58:38;3.60;;;3.50;;
5010;SDS011;2524;54.364;10.072;2022-12-08T08:01:04;3.33;;;3.23;;
5010;SDS011;2524;54.364;10.072;2022-12-08T08:03:30;2.60;;;2.60;;
5010;SDS011;2524;54.364;10.072;2022-12-08T08:06:02;2.07;;;2.07;;
5010;SDS011;2524;54.364;10.072;2022-12-08T08:08:28;2.07;;;2.07;;
5010;SDS011;2524;54.364;10.072;2022-12-08T08:10:56;2.53;;;2.43;;
5010;SDS011;2524;54.364;10.072;2022-12-08T08:13:31;2.77;;;2.67;;
5010;SDS011;2524;54.364;10.072;2022-12-08T08:16:06;2.30;;;2.30;;
5010;SDS011;2524;54.364;10.072;2022-12-08T08:18:34;2.17;;;2.17;;
5010;SDS011;2524;54.364;10.072;2022-12-08T08:21:00;1.87;;;1.87;;
5010;SDS011;2524;54.364;10.072;2022-12-08T08:23:26;1.80;;;1.80;;
5010;SDS011;2524;54.364;10.072;2022-12-08T08:25:52;1.40;;;1.40;;
5010;SDS011;2524;54.364;10.072;2022-12-08T08:28:18;1.70;;;1.70;;
5010;SDS011;2524;54.364;10.072;2022-12-08T08:30:46;1.47;;;1.47;;
5010;SDS011;2524;54.364;10.072;2022-12-08T08:33:12;1.30;;;1.30;;
5010;SDS011;2524;54.364;10.072;2022-12-08T08:35:38;1.40;;;1.40;;
5010;SDS011;2524;54.364;10.072;2022-12-08T08:38:04;1.27;;;1.27;;
5010;SDS011;2524;54.364;10.072;2022-12-08T08:40:30;1.27;;;1.27;;
5010;SDS011;2524;54.364;10.072;2022-12-08T08:42:56;1.60;;;1.60;;
5010;SDS011;2524;54.364;10.072;2022-12-08T08:45:21;1.60;;;1.60;;
5010;SDS011;2524;54.364;10.072;2022-12-08T08:47:47;1.80;;;1.80;;
5010;SDS011;2524;54.364;10.072;2022-12-08T08:50:12;1.70;;;1.60;;
5010;SDS011;2524;54.364;10.072;2022-12-08T08:52:38;1.30;;;1.30;;
5010;SDS011;2524;54.364;10.072;2022-12-08T08:55:03;1.13;;;1.13;;
5010;SDS011;2524;54.364;10.072;2022-12-08T08:57:29;2.07;;;1.97;;
5010;SDS011;2524;54.364;10.072;2022-12-08T08:59:55;1.70;;;1.70;;
5010;SDS011;2524;54.364;10.072;2022-12-08T09:02:20;1.53;;;1.53;;
5010;SDS011;2524;54.364;10.072;2022-12-08T09:04:46;1.87;;;1.87;;
5010;SDS011;2524;54.364;10.072;2022-12-08T09:07:12;1.90;;;1.80;;
5010;SDS011;2524;54.364;10.072;2022-12-08T09:09:39;1.27;;;1.27;;
5010;SDS011;2524;54.364;10.072;2022-12-08T09:12:05;1.70;;;1.70;;
5010;SDS011;2524;54.364;10.072;2022-12-08T09:14:30;1.80;;;1.80;;
5010;SDS011;2524;54.364;10.072;2022-12-08T09:16:56;1.90;;;1.90;;
5010;SDS011;2524;54.364;10.072;2022-12-08T09:19:22;1.70;;;1.70;;
5010;SDS011;2524;54.364;10.072;2022-12-08T09:21:47;1.70;;;1.70;;
5010;SDS011;2524;54.364;10.072;2022-12-08T09:24:13;2.30;;;2.30;;
5010;SDS011;2524;54.364;10.072;2022-12-08T09:26:42;1.70;;;1.70;;
5010;SDS011;2524;54.364;10.072;2022-12-08T09:29:08;2.20;;;2.13;;
5010;SDS011;2524;54.364;10.072;2022-12-08T09:31:35;2.60;;;2.17;;
5010;SDS011;2524;54.364;10.072;2022-12-08T09:34:00;2.00;;;2.00;;
5010;SDS011;2524;54.364;10.072;2022-12-08T09:36:26;1.77;;;1.77;;
5010;SDS011;2524;54.364;10.072;2022-12-08T09:38:52;2.50;;;2.40;;
5010;SDS011;2524;54.364;10.072;2022-12-08T09:47:02;1.73;;;1.73;;
5010;SDS011;2524;54.364;10.072;2022-12-08T09:49:38;1.40;;;1.40;;
5010;SDS011;2524;54.364;10.072;2022-12-08T09:52:12;1.60;;;1.60;;
5010;SDS011;2524;54.364;10.072;2022-12-08T09:55:11;1.30;;;1.30;;
5010;SDS011;2524;54.364;10.072;2022-12-08T09:57:43;1.60;;;1.60;;
5010;SDS011;2524;54.364;10.072;2022-12-08T10:00:09;1.20;;;1.20;;
5010;SDS011;2524;54.364;10.072;2022-12-08T10:02:38;1.30;;;1.30;;
5010;SDS011;2524;54.364;10.072;2022-12-08T10:05:04;1.33;;;1.33;;
5010;SDS011;2524;54.364;10.072;2022-12-08T10:07:37;1.20;;;1.20;;
5010;SDS011;2524;54.364;10.072;2022-12-08T10:10:32;1.27;;;1.27;;
5010;SDS011;2524;54.364;10.072;2022-12-08T10:18:26;1.50;;;1.50;;
5010;SDS011;2524;54.364;10.072;2022-12-08T10:20:56;1.37;;;1.37;;
5010;SDS011;2524;54.364;10.072;2022-12-08T10:23:53;1.30;;;1.30;;
5010;SDS011;2524;54.364;10.072;2022-12-08T10:26:24;2.03;;;1.97;;
5010;SDS011;2524;54.364;10.072;2022-12-08T10:28:49;1.40;;;1.40;;
5010;SDS011;2524;54.364;10.072;2022-12-08T10:31:16;1.73;;;1.73;;
5010;SDS011;2524;54.364;10.072;2022-12-08T10:34:31;2.20;;;2.20;;
5010;SDS011;2524;54.364;10.072;2022-12-08T10:36:48;2.00;;;2.00;;
5010;SDS011;2524;54.364;10.072;2022-12-08T10:42:03;2.33;;;2.23;;
5010;SDS011;2524;54.364;10.072;2022-12-08T10:44:32;2.60;;;2.60;;
5010;SDS011;2524;54.364;10.072;2022-12-08T10:47:09;2.30;;;2.20;;
5010;SDS011;2524;54.364;10.072;2022-12-08T10:49:36;1.67;;;1.67;;
5010;SDS011;2524;54.364;10.072;2022-12-08T10:52:05;1.70;;;1.70;;
5010;SDS011;2524;54.364;10.072;2022-12-08T10:54:45;1.90;;;1.70;;
5010;SDS011;2524;54.364;10.072;2022-12-08T10:57:19;1.50;;;1.50;;
5010;SDS011;2524;54.364;10.072;2022-12-08T10:59:46;1.63;;;1.63;;
5010;SDS011;2524;54.364;10.072;2022-12-08T11:02:16;1.83;;;1.83;;
5010;SDS011;2524;54.364;10.072;2022-12-08T11:04:43;1.50;;;1.50;;
5010;SDS011;2524;54.364;10.072;2022-12-08T11:07:09;1.70;;;1.70;;
5010;SDS011;2524;54.364;10.072;2022-12-08T11:09:40;1.50;;;1.40;;
5010;SDS011;2524;54.364;10.072;2022-12-08T11:12:12;1.20;;;1.20;;
5010;SDS011;2524;54.364;10.072;2022-12-08T11:17:08;2.10;;;2.10;;
5010;SDS011;2524;54.364;10.072;2022-12-08T11:19:37;1.40;;;1.40;;
5010;SDS011;2524;54.364;10.072;2022-12-08T11:22:24;1.90;;;1.80;;
5010;SDS011;2524;54.364;10.072;2022-12-08T11:27:45;1.73;;;1.73;;
5010;SDS011;2524;54.364;10.072;2022-12-08T11:30:19;1.50;;;1.50;;
5010;SDS011;2524;54.364;10.072;2022-12-08T11:32:47;1.60;;;1.60;;
5010;SDS011;2524;54.364;10.072;2022-12-08T11:37:49;4.17;;;3.97;;
5010;SDS011;2524;54.364;10.072;2022-12-08T11:40:24;4.20;;;4.00;;
5010;SDS011;2524;54.364;10.072;2022-12-08T11:45:22;4.10;;;3.90;;
5010;SDS011;2524;54.364;10.072;2022-12-08T11:47:55;9.90;;;8.33;;
5010;SDS011;2524;54.364;10.072;2022-12-08T11:50:38;11.63;;;10.20;;
5010;SDS011;2524;54.364;10.072;2022-12-08T11:53:05;9.40;;;8.47;;
5010;SDS011;2524;54.364;10.072;2022-12-08T11:55:40;7.83;;;7.13;;
5010;SDS011;2524;54.364;10.072;2022-12-08T11:58:13;6.03;;;5.53;;
5010;SDS011;2524;54.364;10.072;2022-12-08T12:01:00;11.10;;;7.83;;
5010;SDS011;2524;54.364;10.072;2022-12-08T12:03:27;6.27;;;5.87;;
5010;SDS011;2524;54.364;10.072;2022-12-08T12:08:49;6.33;;;5.83;;
5010;SDS011;2524;54.364;10.072;2022-12-08T12:17:35;6.00;;;5.60;;
5010;SDS011;2524;54.364;10.072;2022-12-08T12:20:24;4.80;;;4.50;;
5010;SDS011;2524;54.364;10.072;2022-12-08T12:22:55;5.10;;;4.80;;
5010;SDS011;2524;54.364;10.072;2022-12-08T12:25:25;5.33;;;5.03;;
5010;SDS011;2524;54.364;10.072;2022-12-08T12:27:52;6.60;;;6.10;;
5010;SDS011;2524;54.364;10.072;2022-12-08T12:30:26;5.23;;;4.93;;
5010;SDS011;2524;54.364;10.072;2022-12-08T12:32:58;5.23;;;4.93;;
5010;SDS011;2524;54.364;10.072;2022-12-08T12:35:35;3.87;;;3.67;;
5010;SDS011;2524;54.364;10.072;2022-12-08T12:38:29;4.50;;;4.30;;
5010;SDS011;2524;54.364;10.072;2022-12-08T12:41:14;3.80;;;3.70;;
5010;SDS011;2524;54.364;10.072;2022-12-08T12:52:04;3.90;;;3.70;;
5010;SDS011;2524;54.364;10.072;2022-12-08T12:57:22;4.30;;;4.10;;
5010;SDS011;2524;54.364;10.072;2022-12-08T13:02:29;5.60;;;5.20;;
5010;SDS011;2524;54.364;10.072;2022-12-08T13:04:56;4.93;;;4.63;;
5010;SDS011;2524;54.364;10.072;2022-12-08T13:07:34;5.07;;;4.77;;
5010;SDS011;2524;54.364;10.072;2022-12-08T13:12:39;4.77;;;4.47;;
5010;SDS011;2524;54.364;10.072;2022-12-08T13:15:13;5.73;;;5.33;;
5010;SDS011;2524;54.364;10.072;2022-12-08T13:17:46;4.50;;;4.20;;
5010;SDS011;2524;54.364;10.072;2022-12-08T13:20:20;5.00;;;4.70;;
5010;SDS011;2524;54.364;10.072;2022-12-08T13:30:50;5.00;;;4.70;;
5010;SDS011;2524;54.364;10.072;2022-12-08T13:35:48;4.27;;;4.07;;
5010;SDS011;2524;54.364;10.072;2022-12-08T13:38:20;5.60;;;5.20;;
5010;SDS011;2524;54.364;10.072;2022-12-08T13:40:49;6.20;;;5.70;;
5010;SDS011;2524;54.364;10.072;2022-12-08T13:46:04;4.53;;;4.33;;
5010;SDS011;2524;54.364;10.072;2022-12-08T13:51:16;4.57;;;4.37;;
5010;SDS011;2524;54.364;10.072;2022-12-08T13:53:54;5.00;;;4.70;;
5010;SDS011;2524;54.364;10.072;2022-12-08T13:56:41;5.87;;;5.47;;
5010;SDS011;2524;54.364;10.072;2022-12-08T13:59:09;4.90;;;4.63;;
5010;SDS011;2524;54.364;10.072;2022-12-08T14:01:52;5.53;;;5.23;;
5010;SDS011;2524;54.364;10.072;2022-12-08T14:04:19;6.27;;;5.80;;
5010;SDS011;2524;54.364;10.072;2022-12-08T14:06:47;5.27;;;4.97;;
5010;SDS011;2524;54.364;10.072;2022-12-08T14:09:16;5.60;;;5.20;;
5010;SDS011;2524;54.364;10.072;2022-12-08T14:11:46;5.37;;;4.97;;
5010;SDS011;2524;54.364;10.072;2022-12-08T14:14:20;5.33;;;5.03;;
5010;SDS011;2524;54.364;10.072;2022-12-08T14:16:52;4.93;;;4.63;;
5010;SDS011;2524;54.364;10.072;2022-12-08T14:19:37;4.33;;;4.03;;
5010;SDS011;2524;54.364;10.072;2022-12-08T14:24:32;6.50;;;6.00;;
5010;SDS011;2524;54.364;10.072;2022-12-08T14:26:58;5.80;;;5.40;;
5010;SDS011;2524;54.364;10.072;2022-12-08T14:34:44;5.47;;;5.07;;
5010;SDS011;2524;54.364;10.072;2022-12-08T14:37:15;5.10;;;4.70;;
5010;SDS011;2524;54.364;10.072;2022-12-08T14:39:41;5.47;;;5.00;;
5010;SDS011;2524;54.364;10.072;2022-12-08T14:42:11;5.47;;;5.07;;
5010;SDS011;2524;54.364;10.072;2022-12-08T14:44:47;4.57;;;4.37;;
5010;SDS011;2524;54.364;10.072;2022-12-08T14:47:19;5.87;;;5.37;;
5010;SDS011;2524;54.364;10.072;2022-12-08T14:49:45;5.60;;;5.20;;
5010;SDS011;2524;54.364;10.072;2022-12-08T14:52:12;4.90;;;4.60;;
5010;SDS011;2524;54.364;10.072;2022-12-08T14:54:38;4.50;;;4.20;;
5010;SDS011;2524;54.364;10.072;2022-12-08T14:57:08;5.33;;;5.03;;
5010;SDS011;2524;54.364;10.072;2022-12-08T14:59:36;5.80;;;5.40;;
5010;SDS011;2524;54.364;10.072;2022-12-08T15:04:45;5.33;;;4.93;;
5010;SDS011;2524;54.364;10.072;2022-12-08T15:07:20;4.50;;;4.20;;
5010;SDS011;2524;54.364;10.072;2022-12-08T15:09:49;4.00;;;3.73;;
5010;SDS011;2524;54.364;10.072;2022-12-08T15:12:33;4.50;;;4.20;;
5010;SDS011;2524;54.364;10.072;2022-12-08T15:17:34;5.40;;;5.00;;
5010;SDS011;2524;54.364;10.072;2022-12-08T15:22:51;6.13;;;5.60;;
5010;SDS011;2524;54.364;10.072;2022-12-08T15:25:18;6.47;;;5.97;;
5010;SDS011;2524;54.364;10.072;2022-12-08T15:27:43;5.50;;;5.10;;
5010;SDS011;2524;54.364;10.072;2022-12-08T15:30:12;7.63;;;6.93;;
5010;SDS011;2524;54.364;10.072;2022-12-08T15:32:39;7.20;;;6.60;;
5010;SDS011;2524;54.364;10.072;2022-12-08T15:35:05;5.73;;;5.33;;
5010;SDS011;2524;54.364;10.072;2022-12-08T15:37:31;5.83;;;5.37;;
5010;SDS011;2524;54.364;10.072;2022-12-08T15:39:56;6.27;;;5.77;;
5010;SDS011;2524;54.364;10.072;2022-12-08T15:42:22;6.07;;;5.57;;
5010;SDS011;2524;54.364;10.072;2022-12-08T15:44:48;5.90;;;5.50;;
5010;SDS011;2524;54.364;10.072;2022-12-08T15:47:17;6.43;;;5.93;;
5010;SDS011;2524;54.364;10.072;2022-12-08T15:49:45;6.23;;;5.73;;
5010;SDS011;2524;54.364;10.072;2022-12-08T15:52:12;6.37;;;5.87;;
5010;SDS011;2524;54.364;10.072;2022-12-08T15:54:39;4.90;;;4.60;;
5010;SDS011;2524;54.364;10.072;2022-12-08T15:57:05;5.30;;;5.00;;
5010;SDS011;2524;54.364;10.072;2022-12-08T15:59:31;5.60;;;5.20;;
5010;SDS011;2524;54.364;10.072;2022-12-08T16:01:56;5.80;;;5.40;;
5010;SDS011;2524;54.364;10.072;2022-12-08T16:04:22;5.03;;;4.73;;
5010;SDS011;2524;54.364;10.072;2022-12-08T16:06:49;4.93;;;4.53;;
5010;SDS011;2524;54.364;10.072;2022-12-08T16:09:22;8.40;;;5.13;;
5010;SDS011;2524;54.364;10.072;2022-12-08T16:12:02;5.27;;;4.87;;
5010;SDS011;2524;54.364;10.072;2022-12-08T16:14:47;5.30;;;4.90;;
5010;SDS011;2524;54.364;10.072;2022-12-08T16:17:13;4.10;;;3.90;;
5010;SDS011;2524;54.364;10.072;2022-12-08T16:19:42;3.83;;;3.63;;
5010;SDS011;2524;54.364;10.072;2022-12-08T16:22:19;4.70;;;4.30;;
5010;SDS011;2524;54.364;10.072;2022-12-08T16:24:46;4.63;;;4.23;;
5010;SDS011;2524;54.364;10.072;2022-12-08T16:27:15;4.57;;;4.27;;
5010;SDS011;2524;54.364;10.072;2022-12-08T16:29:47;4.90;;;4.60;;
5010;SDS011;2524;54.364;10.072;2022-12-08T16:32:13;4.77;;;4.37;;
5010;SDS011;2524;54.364;10.072;2022-12-08T16:34:40;4.23;;;4.03;;
5010;SDS011;2524;54.364;10.072;2022-12-08T16:37:05;5.07;;;4.77;;
5010;SDS011;2524;54.364;10.072;2022-12-08T16:39:31;4.50;;;4.27;;
5010;SDS011;2524;54.364;10.072;2022-12-08T16:41:56;4.57;;;4.27;;
5010;SDS011;2524;54.364;10.072;2022-12-08T16:44:40;5.13;;;4.80;;
5010;SDS011;2524;54.364;10.072;2022-12-08T16:47:07;5.00;;;4.70;;
5010;SDS011;2524;54.364;10.072;2022-12-08T16:49:33;5.30;;;5.00;;
5010;SDS011;2524;54.364;10.072;2022-12-08T16:52:04;4.97;;;4.67;;
5010;SDS011;2524;54.364;10.072;2022-12-08T16:54:30;5.50;;;5.20;;
5010;SDS011;2524;54.364;10.072;2022-12-08T16:56:55;4.87;;;4.57;;
5010;SDS011;2524;54.364;10.072;2022-12-08T16:59:21;4.50;;;4.20;;